Time;durP1;ratioP1;P1;durP2;ratioP2;P2;SDS_P1;SDS_P2;PMS_P1;PMS_P2;Temp;Humidity;BMP_temperature;BMP_pressure;BME280_temperature;BME280_humidity;BME280_pressure;Samples;Min_cycle;Max_cycle;Signal;HPM_P1;HPM_P2
2021/12/28 00:00:32;;;;;;;5.03;1.70;;;;;;;21.17;36.55;99299.41;7309780;19;130986;-61
2021/12/28 00:03:00;;;;;;;4.65;1.70;;;;;;;21.14;36.63;99294.47;7310579;19;130711;-62
2021/12/28 00:05:27;;;;;;;4.32;1.73;;;;;;;21.13;36.45;99290.06;7307749;19;130961;-61
2021/12/28 00:07:54;;;;;;;4.72;1.40;;;;;;;21.10;36.63;99282.31;7310718;19;129601;-61
2021/12/28 00:10:21;;;;;;;5.40;1.80;;;;;;;21.06;36.27;99287.66;7312240;19;128993;-61
2021/12/28 00:12:51;;;;;;;4.80;1.60;;;;;;;21.05;36.80;99287.94;7309439;19;131822;-61
2021/12/28 00:18:02;;;;;;;5.68;1.88;;;;;;;21.02;36.37;99288.56;7308026;19;129028;-61
2021/12/28 00:20:31;;;;;;;5.28;1.80;;;;;;;21.00;36.77;99282.47;7310885;19;129090;-61
2021/12/28 00:22:58;;;;;;;5.95;1.70;;;;;;;20.98;36.70;99284.72;7309029;19;130593;-61
2021/12/28 00:25:25;;;;;;;4.60;1.35;;;;;;;20.97;36.67;99283.06;7310394;19;130661;-61
2021/12/28 00:27:52;;;;;;;3.65;1.55;;;;;;;20.95;36.59;99275.06;7308163;19;129085;-61
2021/12/28 00:30:20;;;;;;;7.30;1.90;;;;;;;20.93;36.73;99277.31;7309651;19;128968;-61
2021/12/28 00:32:52;;;;;;;4.63;1.63;;;;;;;20.92;36.75;99275.66;7308389;19;130686;-61
2021/12/28 00:35:21;;;;;;;3.63;1.48;;;;;;;20.91;36.55;99274.00;7309111;19;130543;-62
2021/12/28 00:37:49;;;;;;;4.57;1.67;;;;;;;20.88;36.68;99272.66;7313517;19;130485;-61
2021/12/28 00:40:17;;;;;;;5.95;1.67;;;;;;;20.87;36.55;99265.44;7315468;19;129343;-61
2021/12/28 00:42:44;;;;;;;4.75;1.65;;;;;;;20.85;36.53;99270.47;7317648;19;130617;-61
2021/12/28 00:45:12;;;;;;;7.97;1.80;;;;;;;20.85;36.60;99272.44;7315063;19;130640;-60
2021/12/28 00:47:40;;;;;;;6.88;1.42;;;;;;;20.83;36.59;99261.59;7318576;19;129088;-61
2021/12/28 00:50:09;;;;;;;3.55;1.58;;;;;;;20.83;36.58;99266.34;7314917;19;130065;-61
2021/12/28 00:52:36;;;;;;;6.05;1.80;;;;;;;20.81;36.71;99266.63;7317405;19;131368;-62
2021/12/28 00:55:05;;;;;;;6.25;1.80;;;;;;;20.79;36.77;99260.56;7315323;19;131218;-61
2021/12/28 00:57:32;;;;;;;5.13;1.80;;;;;;;20.79;36.79;99255.00;7317785;19;128927;-61
2021/12/28 01:00:00;;;;;;;6.38;2.10;;;;;;;20.77;36.64;99257.25;7313882;19;130358;-61
2021/12/28 01:02:27;;;;;;;6.50;1.85;;;;;;;20.77;36.38;99246.16;7315751;19;131274;-61
2021/12/28 01:04:54;;;;;;;6.22;2.10;;;;;;;20.75;36.61;99242.81;7313861;19;131516;-61
2021/12/28 01:07:20;;;;;;;6.28;1.73;;;;;;;20.75;36.62;99237.25;7313851;19;128872;-61
2021/12/28 01:09:47;;;;;;;6.05;1.60;;;;;;;20.73;36.74;99234.78;7316130;19;128991;-61
2021/12/28 01:12:14;;;;;;;6.15;1.58;;;;;;;20.72;36.56;99235.06;7313632;19;130629;-61
2021/12/28 01:14:41;;;;;;;6.35;1.98;;;;;;;20.71;36.52;99227.84;7316349;19;131091;-61
2021/12/28 01:17:08;;;;;;;4.50;1.80;;;;;;;20.71;36.36;99225.06;7312990;19;128998;-61
2021/12/28 01:19:34;;;;;;;4.35;1.70;;;;;;;20.70;36.40;99220.66;7315420;19;128881;-61
2021/12/28 01:22:01;;;;;;;5.22;2.00;;;;;;;20.68;36.80;99220.97;7313877;19;130581;-61
2021/12/28 01:24:30;;;;;;;6.30;1.70;;;;;;;20.67;36.53;99229.59;7316534;19;131919;-62
2021/12/28 01:26:57;;;;;;;4.38;1.80;;;;;;;20.66;36.32;99222.41;7314673;19;128797;-61
2021/12/28 01:29:24;;;;;;;6.55;2.10;;;;;;;20.66;36.78;99228.75;7315892;19;128922;-61
2021/12/28 01:31:51;;;;;;;8.82;1.98;;;;;;;20.65;36.45;99223.53;7314466;19;131150;-61
2021/12/28 01:34:19;;;;;;;4.18;1.85;;;;;;;20.65;36.34;99226.31;7316033;19;130538;-61
2021/12/28 01:36:46;;;;;;;8.50;2.08;;;;;;;20.64;36.47;99227.44;7313421;19;133994;-61
2021/12/28 01:39:13;;;;;;;6.40;1.95;;;;;;;20.62;36.32;99222.16;7314375;19;129082;-61
2021/12/28 01:41:40;;;;;;;6.82;2.40;;;;;;;20.61;36.41;99223.31;7315732;19;131417;-61
2021/12/28 01:44:10;;;;;;;6.57;1.95;;;;;;;20.60;36.65;99230.78;7314141;19;130380;-61
2021/12/28 01:46:38;;;;;;;5.57;1.95;;;;;;;20.58;36.30;99219.16;7317455;19;128964;-61
2021/12/28 01:49:07;;;;;;;7.28;1.90;;;;;;;20.58;36.70;99216.38;7312421;19;128916;-61
2021/12/28 01:51:34;;;;;;;5.32;1.92;;;;;;;20.56;36.36;99207.50;7316069;19;130587;-61
2021/12/28 01:54:02;;;;;;;5.53;2.05;;;;;;;20.55;36.49;99211.44;7313723;19;130546;-61
2021/12/28 01:56:34;;;;;;;9.02;1.80;;;;;;;20.54;36.81;99212.56;7316955;19;130035;-61
2021/12/28 01:59:01;;;;;;;5.47;1.90;;;;;;;20.53;36.29;99210.91;7314576;19;128874;-61
2021/12/28 02:01:27;;;;;;;5.90;2.08;;;;;;;20.53;36.46;99205.38;7316516;19;130557;-61
2021/12/28 02:03:55;;;;;;;10.38;2.33;;;;;;;20.52;36.67;99211.19;7313202;19;131488;-61
2021/12/28 02:06:25;;;;;;;6.82;2.10;;;;;;;20.50;36.42;99208.72;7315738;19;129502;-61
2021/12/28 02:08:53;;;;;;;5.55;1.95;;;;;;;20.50;36.52;99214.28;7313720;19;129089;-61
2021/12/28 02:11:20;;;;;;;5.35;1.70;;;;;;;20.50;36.70;99208.72;7313817;19;131492;-61
2021/12/28 02:13:48;;;;;;;7.10;2.67;;;;;;;20.48;36.49;99210.16;7315629;19;130708;-61
2021/12/28 02:16:16;;;;;;;7.93;2.08;;;;;;;20.46;36.16;99207.66;7312284;19;129930;-61
2021/12/28 02:18:43;;;;;;;9.98;2.60;;;;;;;20.46;36.48;99202.13;7315564;19;130695;-61
2021/12/28 02:21:10;;;;;;;7.80;2.10;;;;;;;20.45;36.24;99200.47;7311126;19;131249;-61
2021/12/28 02:23:37;;;;;;;6.63;2.08;;;;;;;20.44;36.24;99193.25;7317041;19;130652;-61
2021/12/28 02:26:04;;;;;;;8.27;2.72;;;;;;;20.43;36.17;99198.00;7312230;19;128866;-61
2021/12/28 02:28:31;;;;;;;6.95;2.05;;;;;;;20.42;36.25;99192.75;7316432;19;129072;-61
2021/12/28 02:30:58;;;;;;;4.88;2.03;;;;;;;20.40;36.77;99193.03;7313051;19;130542;-61
2021/12/28 02:33:26;;;;;;;11.05;2.67;;;;;;;20.40;36.54;99190.25;7314975;19;131622;-61
2021/12/28 02:35:55;;;;;;;6.75;2.35;;;;;;;20.39;36.20;99182.25;7313324;19;129102;-61
2021/12/28 02:38:22;;;;;;;6.50;2.17;;;;;;;20.39;36.20;99182.25;7315338;19;129612;-61
2021/12/28 02:40:49;;;;;;;7.82;2.25;;;;;;;20.37;36.66;99187.25;7312873;19;130651;-61
2021/12/28 02:43:18;;;;;;;4.70;1.75;;;;;;;20.37;36.25;99181.72;7314694;19;130550;-61
2021/12/28 02:45:54;;;;;;;5.97;2.10;;;;;;;20.36;36.69;99180.91;7316132;19;128981;-62
2021/12/28 02:48:22;;;;;;;9.68;2.90;;;;;;;20.35;36.56;99181.19;7311886;19;128707;-61
2021/12/28 02:50:54;;;;;;;5.93;1.98;;;;;;;20.33;36.61;99178.72;7315566;19;130744;-61
2021/12/28 02:53:21;;;;;;;5.22;1.90;;;;;;;20.33;36.49;99181.50;7311132;19;130455;-61
2021/12/28 02:55:49;;;;;;;7.60;2.35;;;;;;;20.33;36.72;99186.19;7314724;19;129427;-61
2021/12/28 02:58:24;;;;;;;7.93;2.10;;;;;;;20.34;36.63;99185.06;7310349;19;129189;-61
2021/12/28 03:01:05;;;;;;;6.28;1.95;;;;;;;20.33;36.51;99191.75;7309077;19;130855;-61
2021/12/28 03:03:33;;;;;;;6.28;2.00;;;;;;;20.31;36.49;99188.47;7311419;19;131300;-61
2021/12/28 03:06:02;;;;;;;6.50;2.25;;;;;;;20.32;36.77;99190.09;7312240;19;128872;-61
2021/12/28 03:08:30;;;;;;;6.22;2.00;;;;;;;20.28;36.54;99185.16;7314908;19;129059;-60
2021/12/28 03:10:59;;;;;;;6.78;2.28;;;;;;;20.28;36.51;99185.16;7311486;19;131186;-61
2021/12/28 03:13:31;;;;;;;5.53;2.00;;;;;;;20.27;36.34;99177.97;7314295;19;130714;-61
2021/12/28 03:15:58;;;;;;;4.50;1.90;;;;;;;20.26;36.36;99181.88;7311318;19;129600;-61
2021/12/28 03:18:25;;;;;;;6.05;1.88;;;;;;;20.25;36.31;99177.44;7313307;19;128908;-61
2021/12/28 03:20:52;;;;;;;8.13;1.90;;;;;;;20.26;36.46;99170.75;7308733;19;130506;-61
2021/12/28 03:23:22;;;;;;;7.20;2.40;;;;;;;20.25;36.47;99180.22;7313573;19;130514;-61
2021/12/28 03:25:49;;;;;;;5.75;1.83;;;;;;;20.23;36.57;99178.88;7311130;19;128896;-61
2021/12/28 03:28:28;;;;;;;6.95;2.13;;;;;;;20.22;36.62;99166.91;7312804;19;130531;-61
2021/12/28 03:30:58;;;;;;;9.52;2.17;;;;;;;20.22;36.68;99174.44;7310346;19;130548;-61
2021/12/28 03:33:26;;;;;;;8.73;2.90;;;;;;;20.20;36.50;99169.16;7311045;19;131297;-61
2021/12/28 03:35:54;;;;;;;7.55;2.17;;;;;;;20.20;36.69;99177.50;7312560;19;129849;-61
2021/12/28 03:38:22;;;;;;;5.32;2.17;;;;;;;20.20;36.29;99166.38;7311797;19;131075;-61
2021/12/28 03:40:49;;;;;;;7.13;2.10;;;;;;;20.18;36.43;99168.66;7310915;19;131222;-61
2021/12/28 03:43:17;;;;;;;5.32;1.75;;;;;;;20.18;36.68;99168.66;7309322;19;130590;-61
2021/12/28 03:45:44;;;;;;;3.85;1.58;;;;;;;20.17;36.44;99167.00;7312568;19;128781;-61
2021/12/28 03:48:11;;;;;;;5.30;2.20;;;;;;;20.17;36.75;99160.63;7308774;19;129704;-61
2021/12/28 03:50:38;;;;;;;6.38;2.22;;;;;;;20.16;36.56;99159.81;7313192;19;130661;-61
2021/12/28 03:53:07;;;;;;;4.88;1.92;;;;;;;20.16;36.34;99170.91;7310111;19;130452;-61
2021/12/28 03:55:35;;;;;;;6.78;2.20;;;;;;;20.14;36.78;99156.50;7311908;19;129487;-61
2021/12/28 03:58:03;;;;;;;6.88;2.28;;;;;;;20.14;36.32;99153.72;7310170;19;129007;-61
2021/12/28 04:00:33;;;;;;;4.88;1.95;;;;;;;20.14;36.48;99145.41;7310679;19;130642;-61
2021/12/28 04:03:01;;;;;;;5.57;1.98;;;;;;;20.12;36.26;99134.56;7309564;19;131186;-61
2021/12/28 04:05:28;;;;;;;8.18;2.35;;;;;;;20.11;36.85;99129.34;7310713;19;128853;-61
2021/12/28 04:07:55;;;;;;;6.60;2.00;;;;;;;20.10;36.72;99133.22;7312908;19;128958;-61
2021/12/28 04:10:30;;;;;;;5.38;1.58;;;;;;;20.10;36.31;99138.78;7309638;19;130413;-61
2021/12/28 04:12:57;;;;;;;6.57;2.10;;;;;;;20.09;36.69;99149.06;7313960;19;130217;-61
2021/12/28 04:15:24;;;;;;;5.20;1.65;;;;;;;20.08;36.37;99141.88;7316367;19;128967;-61
2021/12/28 04:17:51;;;;;;;7.07;1.92;;;;;;;20.07;36.35;99134.66;7320003;19;129107;-61
2021/12/28 04:20:20;;;;;;;4.05;1.60;;;;;;;20.07;36.34;99131.88;7314534;19;131576;-61
2021/12/28 04:22:47;;;;;;;6.15;1.85;;;;;;;20.07;36.67;99133.81;7318669;19;130422;-61
2021/12/28 04:25:17;;;;;;;5.57;1.80;;;;;;;20.06;36.42;99141.34;7316764;19;128963;-61
2021/12/28 04:27:44;;;;;;;6.30;2.08;;;;;;;20.06;36.29;99140.53;7318478;19;128932;-61
2021/12/28 04:30:13;;;;;;;3.85;1.65;;;;;;;20.05;36.54;99147.19;7316961;19;130711;-61
2021/12/28 04:32:41;;;;;;;6.10;2.10;;;;;;;20.05;36.73;99148.00;7317702;19;131342;-61
2021/12/28 04:35:08;;;;;;;4.68;1.90;;;;;;;20.05;36.27;99147.19;7319847;19;128977;-60
2021/12/28 04:37:37;;;;;;;6.03;2.00;;;;;;;20.03;36.53;99144.69;7317702;19;128790;-61
2021/12/28 04:40:07;;;;;;;4.30;1.77;;;;;;;20.04;36.50;99140.00;7318412;19;130932;-61
2021/12/28 04:42:34;;;;;;;4.43;1.65;;;;;;;20.03;36.76;99141.13;7316689;19;130488;-61
2021/12/28 04:45:01;;;;;;;3.70;1.75;;;;;;;20.02;36.40;99128.34;7318982;19;128732;-61
2021/12/28 04:47:27;;;;;;;5.00;1.95;;;;;;;20.02;36.84;99133.91;7315609;19;128940;-61
2021/12/28 04:49:54;;;;;;;4.28;1.85;;;;;;;20.01;36.40;99135.84;7319223;19;131129;-61
2021/12/28 04:52:21;;;;;;;4.63;1.70;;;;;;;19.99;36.80;99136.16;7317046;19;132555;-61
2021/12/28 04:54:48;;;;;;;5.97;1.60;;;;;;;19.99;36.65;99132.53;7318079;19;128844;-62
2021/12/28 04:57:14;;;;;;;4.28;1.85;;;;;;;19.97;36.89;99130.03;7315586;19;128894;-61
2021/12/28 04:59:41;;;;;;;4.50;1.75;;;;;;;19.96;36.42;99125.63;7317227;19;130644;-61
2021/12/28 05:02:08;;;;;;;5.28;1.90;;;;;;;19.97;36.72;99135.59;7317751;19;130806;-61
2021/12/28 05:04:35;;;;;;;4.72;1.80;;;;;;;19.97;36.70;99130.03;7317309;19;129476;-61
2021/12/28 05:07:01;;;;;;;4.70;1.65;;;;;;;19.97;36.68;99129.22;7314990;19;129002;-61
2021/12/28 05:09:28;;;;;;;6.53;2.08;;;;;;;19.96;36.88;99128.38;7316282;19;130894;-61
2021/12/28 05:11:55;;;;;;;3.95;1.70;;;;;;;19.96;36.61;99133.94;7317858;19;130653;-60
2021/12/28 05:14:22;;;;;;;4.85;1.58;;;;;;;19.95;36.43;99131.47;7314435;19;128893;-61
2021/12/28 05:16:49;;;;;;;4.68;1.55;;;;;;;19.93;36.88;99131.78;7317957;19;129011;-61
2021/12/28 05:19:16;;;;;;;5.72;1.85;;;;;;;19.93;36.83;99134.56;7314322;19;131213;-61
2021/12/28 05:21:43;;;;;;;3.80;1.40;;;;;;;19.95;36.86;99134.25;7316964;19;130930;-61
2021/12/28 05:24:10;;;;;;;3.63;1.55;;;;;;;19.94;36.40;99133.41;7310080;19;128966;-61
2021/12/28 05:26:37;;;;;;;5.30;1.80;;;;;;;19.95;36.81;99128.69;7316141;19;129522;-61
2021/12/28 05:29:04;;;;;;;4.15;1.27;;;;;;;19.94;36.59;99130.63;7313590;19;131315;-61
2021/12/28 05:31:30;;;;;;;2.67;1.02;;;;;;;19.95;36.85;99125.91;7315312;19;130718;-61
2021/12/28 05:33:58;;;;;;;4.63;1.80;;;;;;;19.93;36.69;99117.91;7313039;19;128981;-61
2021/12/28 05:36:25;;;;;;;4.00;1.50;;;;;;;19.96;36.40;99124.81;7315366;19;129047;-61
2021/12/28 05:38:52;;;;;;;3.13;1.50;;;;;;;19.94;36.42;99125.09;7316087;19;130660;-61
2021/12/28 05:41:20;;;;;;;4.53;1.65;;;;;;;19.94;36.61;99125.09;7313783;19;130646;-61
2021/12/28 05:43:46;;;;;;;4.90;1.48;;;;;;;19.93;36.82;99109.59;7316912;19;129215;-61
2021/12/28 05:46:13;;;;;;;5.80;1.58;;;;;;;19.91;36.59;99109.06;7314476;19;129318;-61
2021/12/28 05:48:40;;;;;;;7.03;1.48;;;;;;;19.90;36.81;99096.31;7317470;19;130530;-61
2021/12/28 05:51:06;;;;;;;5.90;1.48;;;;;;;19.90;36.60;99101.84;7313829;19;130512;-61
2021/12/28 05:53:33;;;;;;;4.13;1.27;;;;;;;19.92;37.09;99112.63;7317304;19;129953;-60
2021/12/28 05:56:00;;;;;;;3.13;1.15;;;;;;;19.90;36.83;99107.41;7312520;19;128973;-61
2021/12/28 05:58:27;;;;;;;3.47;1.50;;;;;;;19.90;36.57;99107.41;7315686;19;130553;-61
2021/12/28 06:00:53;;;;;;;3.95;1.60;;;;;;;19.88;36.72;99104.09;7313401;19;132211;-61
2021/12/28 06:03:20;;;;;;;4.38;1.58;;;;;;;19.89;36.58;99105.75;7316548;19;131087;-61
2021/12/28 06:05:47;;;;;;;4.35;1.20;;;;;;;19.88;36.80;99090.22;7312956;19;130886;-60
2021/12/28 06:08:14;;;;;;;4.72;1.40;;;;;;;19.87;36.75;99091.34;7313586;19;131235;-61
2021/12/28 06:10:58;;;;;;;5.38;1.55;;;;;;;19.87;36.65;99085.78;7313261;19;132857;-61
2021/12/28 06:13:25;;;;;;;3.45;1.33;;;;;;;19.86;36.79;99084.13;7311775;19;129381;-61
2021/12/28 06:15:51;;;;;;;3.78;1.65;;;;;;;19.86;36.49;99084.13;7312995;19;130199;-61
2021/12/28 06:18:18;;;;;;;3.50;1.40;;;;;;;19.84;36.75;99086.38;7307177;19;131253;-61
2021/12/28 06:20:45;;;;;;;3.22;1.20;;;;;;;19.84;36.86;99083.59;7307151;19;130979;-61
2021/12/28 06:23:12;;;;;;;4.25;1.42;;;;;;;19.84;37.13;99092.78;7309620;19;129161;-61
2021/12/28 06:25:39;;;;;;;5.78;1.27;;;;;;;19.83;37.26;99085.56;7313750;19;128943;-60
2021/12/28 06:28:06;;;;;;;5.55;1.35;;;;;;;19.82;37.06;99094.19;7309457;19;130231;-60
2021/12/28 06:30:33;;;;;;;4.43;1.55;;;;;;;19.82;36.85;99099.72;7310159;19;131261;-61
2021/12/28 06:33:00;;;;;;;12.52;1.50;;;;;;;19.82;36.86;99092.25;7314856;19;129020;-61
2021/12/28 06:35:27;;;;;;;4.72;1.63;;;;;;;19.80;36.92;99091.72;7311627;19;128956;-61
2021/12/28 06:37:54;;;;;;;4.90;1.38;;;;;;;19.80;36.86;99082.56;7312593;19;131028;-61
2021/12/28 06:40:21;;;;;;;4.82;1.35;;;;;;;19.79;37.26;99092.03;7310224;19;130747;-62
2021/12/28 06:42:48;;;;;;;6.38;1.52;;;;;;;19.79;37.38;99089.25;7314432;19;128882;-61
2021/12/28 06:45:15;;;;;;;3.35;1.38;;;;;;;19.79;37.34;99094.78;7313184;19;128829;-61
2021/12/28 06:47:42;;;;;;;4.63;1.45;;;;;;;19.78;37.16;99082.03;7314929;19;130599;-61
2021/12/28 06:50:09;;;;;;;4.28;1.20;;;;;;;19.77;36.99;99083.97;7311979;19;130476;-61
2021/12/28 06:52:36;;;;;;;5.15;1.30;;;;;;;19.76;37.06;99085.09;7315468;19;130084;-61
2021/12/28 06:55:05;;;;;;;7.68;1.92;;;;;;;19.77;37.24;99091.50;7313486;19;129478;-61
2021/12/28 06:57:32;;;;;;;4.03;1.23;;;;;;;19.76;37.29;99098.16;7314614;19;130605;-60
2021/12/28 06:59:59;;;;;;;6.40;1.20;;;;;;;19.75;37.11;99093.72;7311872;19;130890;-61
2021/12/28 07:02:26;;;;;;;3.40;1.10;;;;;;;19.74;37.25;99087.38;7311398;19;128735;-61
2021/12/28 07:04:53;;;;;;;3.58;1.20;;;;;;;19.75;37.18;99085.41;7312365;19;129560;-60
2021/12/28 07:07:20;;;;;;;4.97;1.50;;;;;;;19.73;37.42;99091.28;7313700;19;130649;-61
2021/12/28 07:09:47;;;;;;;4.72;1.00;;;;;;;19.71;37.52;99084.34;7314499;19;130653;-60
2021/12/28 07:12:14;;;;;;;6.65;1.40;;;;;;;19.72;37.54;99080.44;7312762;19;128829;-61
2021/12/28 07:14:40;;;;;;;4.28;1.20;;;;;;;19.72;37.47;99086.84;7315287;19;129582;-61
2021/12/28 07:17:07;;;;;;;4.72;1.10;;;;;;;19.69;37.35;99091.00;7310274;19;131339;-61
2021/12/28 07:19:34;;;;;;;3.42;1.33;;;;;;;19.71;37.15;99081.56;7314646;19;130519;-61
2021/12/28 07:22:01;;;;;;;3.55;1.40;;;;;;;19.69;37.57;99090.19;7311149;19;129316;-61
2021/12/28 07:24:27;;;;;;;5.15;1.48;;;;;;;19.69;37.35;99087.44;7314586;19;129950;-61
2021/12/28 07:26:54;;;;;;;2.25;0.82;;;;;;;19.69;37.39;99091.00;7311736;19;130508;-61
2021/12/28 07:29:21;;;;;;;2.28;1.00;;;;;;;19.70;37.26;99091.84;7313708;19;130510;-61
2021/12/28 07:31:48;;;;;;;3.85;1.00;;;;;;;19.68;37.34;99089.41;7311730;19;129058;-60
2021/12/28 07:34:16;;;;;;;4.22;1.40;;;;;;;19.68;37.39;99088.56;7313006;19;129011;-61
2021/12/28 07:36:43;;;;;;;4.45;1.25;;;;;;;19.69;37.35;99079.91;7313819;19;131059;-60
2021/12/28 07:39:10;;;;;;;4.82;1.02;;;;;;;19.67;37.52;99082.19;7312620;19;130474;-60
2021/12/28 07:41:37;;;;;;;2.05;0.88;;;;;;;19.68;37.42;99089.41;7310920;19;128730;-60
2021/12/28 07:44:04;;;;;;;3.40;1.15;;;;;;;19.67;37.38;99076.63;7312034;19;128703;-61
2021/12/28 07:46:30;;;;;;;3.78;0.98;;;;;;;19.67;37.66;99082.19;7313105;19;130546;-61
2021/12/28 07:48:57;;;;;;;2.47;1.00;;;;;;;19.66;37.59;99086.09;7322891;19;130491;-61
2021/12/28 07:51:24;;;;;;;2.47;0.80;;;;;;;19.67;37.28;99081.34;7328382;19;128887;-60
2021/12/28 07:53:50;;;;;;;3.25;1.15;;;;;;;19.66;37.68;99076.91;7324873;19;129565;-60
2021/12/28 07:56:17;;;;;;;2.33;1.00;;;;;;;19.66;37.31;99077.75;7328556;19;130594;-60
2021/12/28 07:58:45;;;;;;;3.08;1.05;;;;;;;19.66;37.46;99074.16;7323943;19;130988;-61
2021/12/28 08:01:11;;;;;;;4.15;1.30;;;;;;;19.66;37.58;99079.69;7325786;19;128652;-60
2021/12/28 08:03:38;;;;;;;2.35;0.80;;;;;;;19.65;37.61;99081.66;7325891;19;129205;-60
2021/12/28 08:06:05;;;;;;;4.18;1.00;;;;;;;19.64;37.45;99077.22;7326926;19;130346;-61
2021/12/28 08:08:32;;;;;;;3.00;1.00;;;;;;;19.65;37.45;99073.34;7323435;19;131304;-60
2021/12/28 08:10:59;;;;;;;2.47;1.00;;;;;;;19.64;37.29;99071.69;7326140;19;128957;-60
2021/12/28 08:13:25;;;;;;;2.33;1.00;;;;;;;19.63;37.67;99072.81;7324361;19;129375;-60
2021/12/28 08:15:52;;;;;;;2.65;0.90;;;;;;;19.64;37.62;99070.84;7323605;19;130708;-61
2021/12/28 08:18:19;;;;;;;2.20;0.95;;;;;;;19.62;37.27;99068.38;7327208;19;130612;-61
2021/12/28 08:20:45;;;;;;;2.20;0.80;;;;;;;19.62;37.27;99079.47;7324364;19;128884;-61
2021/12/28 08:23:12;;;;;;;2.80;0.80;;;;;;;19.63;37.41;99075.56;7326584;19;128945;-60
2021/12/28 08:25:39;;;;;;;2.45;0.88;;;;;;;19.63;37.66;99077.53;7322250;19;130789;-60
2021/12/28 08:28:06;;;;;;;2.05;0.75;;;;;;;19.62;37.70;99073.94;7327232;19;130519;-61
2021/12/28 08:30:38;;;;;;;5.68;1.20;;;;;;;19.62;37.51;99060.06;7323802;19;129023;-61
2021/12/28 08:33:07;;;;;;;2.20;1.05;;;;;;;19.63;37.72;99072.00;7326640;19;128965;-61
2021/12/28 08:35:39;;;;;;;2.47;0.90;;;;;;;19.62;37.68;99073.13;7323349;19;131083;-61
2021/12/28 08:38:10;;;;;;;1.60;0.77;;;;;;;19.61;37.39;99066.72;7325960;19;130604;-61
2021/12/28 08:40:39;;;;;;;1.85;0.88;;;;;;;19.61;37.31;99068.69;7323060;19;132595;-60
2021/12/28 08:43:07;;;;;;;2.92;1.00;;;;;;;19.59;37.74;99068.97;7323270;19;128950;-60
2021/12/28 08:45:34;;;;;;;2.05;0.80;;;;;;;19.61;37.73;99075.03;7325606;19;130236;-60
2021/12/28 08:48:02;;;;;;;1.50;0.70;;;;;;;19.60;37.28;99076.16;7322760;19;130554;-61
2021/12/28 08:50:29;;;;;;;1.13;0.73;;;;;;;19.59;37.76;99060.66;7324927;19;128708;-59
2021/12/28 08:52:56;;;;;;;2.95;0.98;;;;;;;19.59;37.74;99068.97;7323501;19;130549;-61
2021/12/28 08:55:23;;;;;;;2.35;0.93;;;;;;;19.59;37.67;99068.97;7326684;19;131399;-60
2021/12/28 08:57:51;;;;;;;1.95;0.63;;;;;;;19.60;37.36;99067.03;7322930;19;130726;-60
2021/12/28 09:00:24;;;;;;;2.85;0.80;;;;;;;19.60;37.39;99064.25;7319828;19;129726;-60
2021/12/28 09:02:53;;;;;;;2.00;0.65;;;;;;;19.59;37.55;99055.09;7316153;19;128794;-61
2021/12/28 09:05:20;;;;;;;3.65;0.80;;;;;;;19.58;37.76;99056.22;7318424;19;131103;-60
2021/12/28 09:07:47;;;;;;;2.72;1.02;;;;;;;19.57;37.36;99051.78;7315526;19;131312;-60
2021/12/28 09:10:14;;;;;;;2.70;0.70;;;;;;;19.57;37.62;99042.66;7317152;19;129358;-61
2021/12/28 09:12:40;;;;;;;2.47;0.73;;;;;;;19.57;37.42;99042.66;7317223;19;129006;-60
2021/12/28 09:15:09;;;;;;;1.33;0.60;;;;;;;19.57;37.35;99048.22;7316912;19;131267;-60
2021/12/28 09:17:37;;;;;;;2.08;0.60;;;;;;;19.57;37.35;99037.13;7318300;19;130682;-60
2021/12/28 09:20:09;;;;;;;1.55;0.70;;;;;;;19.56;37.82;99047.41;7316809;19;128760;-60
2021/12/28 09:22:56;;;;;;;1.60;0.80;;;;;;;19.55;37.39;99045.75;7316993;19;130440;-60
2021/12/28 09:25:24;;;;;;;1.65;0.68;;;;;;;19.56;37.76;99044.63;7314452;19;131505;-61
2021/12/28 09:27:51;;;;;;;2.30;0.88;;;;;;;19.56;37.75;99032.69;7317873;19;130667;-60
2021/12/28 09:30:18;;;;;;;2.30;0.70;;;;;;;19.55;37.32;99029.09;7315421;19;128903;-60
2021/12/28 09:32:45;;;;;;;1.20;0.60;;;;;;;19.56;37.80;99029.91;7317333;19;128907;-61
2021/12/28 09:35:12;;;;;;;2.28;0.65;;;;;;;19.55;37.74;99029.09;7315683;19;131264;-60
2021/12/28 09:37:39;;;;;;;2.95;0.60;;;;;;;19.54;37.67;99033.00;7316916;19;131792;-61
2021/12/28 09:40:09;;;;;;;1.40;0.60;;;;;;;19.54;37.44;99030.22;7317405;19;128853;-60
2021/12/28 09:42:36;;;;;;;2.92;0.90;;;;;;;19.55;37.65;99031.03;7316127;19;128829;-60
2021/12/28 09:45:06;;;;;;;1.65;0.77;;;;;;;19.54;37.80;99021.91;7317091;19;130628;-60
2021/12/28 09:47:33;;;;;;;2.15;0.88;;;;;;;19.53;37.75;99021.06;7314730;19;131024;-60
2021/12/28 09:50:05;;;;;;;2.83;0.70;;;;;;;19.53;37.37;99014.69;7317196;19;130207;-61
2021/12/28 09:52:32;;;;;;;1.42;0.70;;;;;;;19.53;37.66;99003.59;7313825;19;128973;-60
2021/12/28 09:54:59;;;;;;;1.52;0.50;;;;;;;19.51;37.81;99017.75;7316441;19;130638;-61
2021/12/28 09:57:28;;;;;;;1.35;0.60;;;;;;;19.52;37.51;99013.88;7312834;19;130558;-61
2021/12/28 09:59:57;;;;;;;1.65;0.60;;;;;;;19.52;37.87;99007.50;7316885;19;129233;-61
2021/12/28 10:02:24;;;;;;;1.52;0.60;;;;;;;19.52;37.80;99001.97;7314452;19;129629;-61
2021/12/28 10:05:07;;;;;;;1.30;0.60;;;;;;;19.52;37.57;99001.97;7315525;19;131264;-61
2021/12/28 10:07:44;;;;;;;1.17;0.57;;;;;;;19.51;37.73;98995.56;7316604;19;130590;-60
2021/12/28 10:10:11;;;;;;;1.45;0.70;;;;;;;19.50;37.40;99001.44;7313456;19;128714;-61
2021/12/28 10:12:44;;;;;;;1.30;0.60;;;;;;;19.50;37.56;98993.09;7316154;19;129376;-61
2021/12/28 10:15:18;;;;;;;1.83;0.70;;;;;;;19.48;37.42;98990.66;7312717;19;131396;-61
2021/12/28 10:17:49;;;;;;;1.25;0.50;;;;;;;19.48;37.60;98984.25;7316490;19;131841;-61
2021/12/28 10:20:24;;;;;;;0.90;0.50;;;;;;;19.48;37.71;98989.81;7313037;19;129095;-61
2021/12/28 10:23:03;;;;;;;3.35;0.80;;;;;;;19.48;37.82;98978.72;7314496;19;128588;-61
2021/12/28 10:25:40;;;;;;;0.93;0.55;;;;;;;19.47;37.78;98980.66;7313111;19;130423;-61
2021/12/28 10:28:09;;;;;;;4.18;0.57;;;;;;;19.46;37.56;98980.94;7312696;19;131235;-61
2021/12/28 10:30:55;;;;;;;4.15;0.65;;;;;;;19.45;38.00;98969.06;7314786;19;128954;-61
2021/12/28 10:33:27;;;;;;;2.25;0.60;;;;;;;19.44;37.55;98974.91;7314273;19;130383;-61
2021/12/28 10:36:06;;;;;;;5.13;0.73;;;;;;;19.44;37.50;98961.03;7314750;19;130569;-61
2021/12/28 10:38:36;;;;;;;3.90;0.63;;;;;;;19.42;37.50;98968.81;7316759;19;132061;-61
2021/12/28 10:41:22;;;;;;;2.08;0.50;;;;;;;19.44;37.50;98966.59;7313925;19;129308;-61
2021/12/28 10:43:51;;;;;;;5.03;0.63;;;;;;;19.43;37.55;98965.75;7313850;19;129022;-61
2021/12/28 10:46:22;;;;;;;6.43;0.63;;;;;;;19.43;37.71;98964.94;7312597;19;131309;-61
2021/12/28 10:48:55;;;;;;;5.20;0.80;;;;;;;19.42;37.62;98957.75;7313980;19;131157;-61
2021/12/28 10:51:33;;;;;;;4.78;0.60;;;;;;;19.41;37.56;98953.31;7315041;19;129054;-61
2021/12/28 10:56:38;;;;;;;5.50;0.90;;;;;;;19.42;37.62;98963.28;7315459;19;130729;-61
2021/12/28 10:59:07;;;;;;;2.88;0.57;;;;;;;19.42;37.55;98974.38;7313023;19;130540;-61
2021/12/28 11:01:38;;;;;;;5.28;0.60;;;;;;;19.43;37.83;98998.22;7315370;19;128836;-61
2021/12/28 11:04:09;;;;;;;3.72;0.55;;;;;;;19.43;37.87;98982.38;7311292;19;128838;-61
2021/12/28 11:06:39;;;;;;;2.67;0.50;;;;;;;19.44;37.67;98980.44;7314522;19;130535;-61
2021/12/28 11:09:10;;;;;;;1.38;0.50;;;;;;;19.45;37.64;98998.72;7312009;19;130628;-61
2021/12/28 11:11:39;;;;;;;2.80;0.70;;;;;;;19.44;38.04;98984.03;7313804;19;130509;-61
2021/12/28 11:14:09;;;;;;;4.82;0.70;;;;;;;19.46;37.81;98980.94;7311482;19;129626;-61
2021/12/28 11:16:37;;;;;;;4.80;0.75;;;;;;;19.45;38.13;98980.13;7310641;19;131390;-61
2021/12/28 11:19:06;;;;;;;2.80;0.60;;;;;;;19.48;38.30;98981.47;7312079;19;131293;-61
2021/12/28 11:21:35;;;;;;;1.92;0.60;;;;;;;19.53;38.03;98981.41;7311103;19;130219;-61
2021/12/28 11:24:15;;;;;;;7.15;0.70;;;;;;;19.60;38.00;98981.84;7310394;19;128965;-61
2021/12/28 11:26:50;;;;;;;7.65;0.70;;;;;;;19.66;38.28;98982.59;7310600;19;130547;-62
2021/12/28 11:29:30;;;;;;;2.05;0.60;;;;;;;19.74;38.48;98998.59;7313112;19;131298;-61
2021/12/28 11:32:01;;;;;;;8.52;0.95;;;;;;;19.80;38.00;99002.91;7310844;19;129066;-61
2021/12/28 11:34:32;;;;;;;4.28;1.02;;;;;;;19.84;38.24;98998.44;7307854;19;128787;-62